Time;durP1;ratioP1;P1;durP2;ratioP2;P2;SDS_P1;SDS_P2;PMS_P1;PMS_P2;Temp;Humidity;BMP_temperature;BMP_pressure;BME280_temperature;BME280_humidity;BME280_pressure;Samples;Min_cycle;Max_cycle;Signal;HPM_P1;HPM_P2
2022/05/31 00:02:10;;;;;;;4.45;2.50;;;;;;;10.27;76.70;101389.38;5095935;28;20064;-35
2022/05/31 00:04:35;;;;;;;5.65;2.42;;;;;;;10.31;75.92;101394.13;5096417;28;20407;-35
2022/05/31 00:07:01;;;;;;;4.47;3.10;;;;;;;10.30;75.88;101392.47;5095842;28;20032;-34
2022/05/31 00:09:26;;;;;;;4.53;2.88;;;;;;;10.21;76.14;101379.41;5095585;28;20069;-35
2022/05/31 00:11:52;;;;;;;4.68;2.63;;;;;;;10.37;75.33;101394.31;5095424;28;20089;-34
2022/05/31 00:14:19;;;;;;;4.65;2.97;;;;;;;10.31;75.67;101393.31;5095066;28;20028;-35
2022/05/31 00:16:45;;;;;;;5.95;2.95;;;;;;;10.27;75.26;101386.66;5095784;28;20028;-34
2022/05/31 00:19:12;;;;;;;3.35;2.50;;;;;;;10.27;75.87;101386.66;5095616;28;20030;-35
2022/05/31 00:21:51;;;;;;;3.13;2.50;;;;;;;10.20;76.23;101389.38;5095569;28;20420;-35
2022/05/31 00:24:19;;;;;;;3.78;2.65;;;;;;;10.15;76.25;101378.38;5096071;28;20024;-35
2022/05/31 00:26:44;;;;;;;4.75;2.92;;;;;;;10.15;76.54;101386.50;5095568;28;20055;-35
2022/05/31 00:29:10;;;;;;;4.40;2.72;;;;;;;10.00;76.84;101372.41;5095120;28;20027;-34
2022/05/31 00:31:37;;;;;;;;;;;;;;;10.30;74.41;101381.66;5096135;28;20020;-34
2022/05/31 00:34:04;;;;;;;5.60;2.40;;;;;;;10.04;76.09;101385.28;5095341;28;19916;-35
2022/05/31 00:36:31;;;;;;;6.40;3.33;;;;;;;10.01;76.66;101388.41;5095055;28;20035;-35
2022/05/31 00:38:56;;;;;;;;;;;;;;;10.23;74.73;101383.53;5095392;28;20046;-35
2022/05/31 00:41:24;;;;;;;3.28;2.53;;;;;;;9.95;76.83;101381.16;5094686;28;19995;-34
2022/05/31 00:43:57;;;;;;;3.58;2.53;;;;;;;9.98;77.40;101393.41;5094921;28;20081;-35
2022/05/31 00:46:26;;;;;;;4.50;2.70;;;;;;;9.90;77.41;101380.97;5095654;28;20028;-34
2022/05/31 00:48:59;;;;;;;3.13;2.80;;;;;;;9.95;77.06;101391.94;5095125;28;20492;-35
2022/05/31 00:51:41;;;;;;;6.15;2.70;;;;;;;9.94;78.01;101389.47;5095494;28;20032;-35
2022/05/31 00:54:12;;;;;;;5.22;2.35;;;;;;;9.90;78.27;101391.75;5095144;28;20051;-35
2022/05/31 00:56:38;;;;;;;3.65;2.70;;;;;;;9.84;78.00;101379.13;5095482;28;20414;-35
2022/05/31 00:59:06;;;;;;;5.05;3.10;;;;;;;9.91;77.72;101393.44;5094550;28;20131;-35
2022/05/31 01:01:36;;;;;;;3.92;2.53;;;;;;;9.82;79.39;101385.78;5095063;28;20029;-35
2022/05/31 01:04:03;;;;;;;5.43;2.40;;;;;;;9.82;79.21;101388.50;5094513;28;20490;-35
2022/05/31 01:06:29;;;;;;;5.22;3.25;;;;;;;9.80;79.37;101385.97;5094501;28;20032;-34
2022/05/31 01:08:57;;;;;;;4.55;2.88;;;;;;;9.86;78.59;101387.00;5095203;28;20050;-35
2022/05/31 01:11:26;;;;;;;6.75;3.10;;;;;;;9.77;78.44;101371.06;5094309;28;20465;-35
2022/05/31 01:13:53;;;;;;;5.07;2.53;;;;;;;9.78;78.21;101380.81;5094506;28;20066;-35
2022/05/31 01:16:18;;;;;;;;;;;;;;;10.00;76.60;101375.97;5094718;28;20020;-34
2022/05/31 01:18:43;;;;;;;4.57;2.50;;;;;;;9.81;77.51;101382.25;5094169;28;20261;-34
2022/05/31 01:21:09;;;;;;;4.23;2.63;;;;;;;9.76;77.93;101372.09;5094551;28;20479;-35
2022/05/31 01:23:45;;;;;;;4.10;2.87;;;;;;;9.81;78.42;101382.25;5093917;28;20327;-34
2022/05/31 01:26:41;;;;;;;3.88;2.75;;;;;;;9.82;78.11;101375.81;5093836;28;20070;-34
2022/05/31 01:29:38;;;;;;;5.45;3.10;;;;;;;9.83;77.15;101372.06;5094867;28;20024;-34
2022/05/31 01:32:07;;;;;;;5.03;3.05;;;;;;;9.76;77.09;101379.34;5071708;28;20526;-35
2022/05/31 01:34:55;;;;;;;6.25;3.00;;;;;;;9.73;78.17;101374.38;5071050;28;20059;-34
2022/05/31 01:37:25;;;;;;;5.20;2.88;;;;;;;9.67;77.53;101367.13;5071526;28;20388;-35
2022/05/31 01:39:56;;;;;;;5.20;3.33;;;;;;;9.59;78.51;101359.25;5071683;28;20515;-34
2022/05/31 01:42:43;;;;;;;4.25;3.10;;;;;;;9.65;77.09;101367.31;5071237;28;20088;-34
2022/05/31 01:45:44;;;;;;;4.10;2.90;;;;;;;9.66;77.62;101360.91;5071082;28;20435;-34
2022/05/31 01:48:10;;;;;;;5.25;3.15;;;;;;;9.56;77.68;101360.50;4992078;28;20045;-34
2022/05/31 01:50:36;;;;;;;3.97;2.80;;;;;;;9.53;78.90;101363.63;4992008;28;20030;-34
2022/05/31 01:53:03;;;;;;;4.22;2.90;;;;;;;9.50;78.11;101362.19;4991878;28;20125;-34
2022/05/31 01:55:31;;;;;;;3.85;2.90;;;;;;;9.50;78.53;101367.56;4991810;28;20042;-34
2022/05/31 01:57:59;;;;;;;4.63;3.00;;;;;;;9.47;77.69;101362.63;4992386;28;20031;-34
2022/05/31 02:00:24;;;;;;;4.82;2.80;;;;;;;9.44;77.99;101363.03;4992031;28;20387;-34
2022/05/31 02:02:52;;;;;;;4.00;2.83;;;;;;;9.44;78.57;101363.03;4991884;28;20096;-34
2022/05/31 02:05:19;;;;;;;5.22;3.00;;;;;;;9.41;77.63;101362.63;4991976;28;20391;-34
2022/05/31 02:07:59;;;;;;;4.68;2.58;;;;;;;9.38;78.25;101355.78;5001264;28;20041;-35
2022/05/31 02:10:26;;;;;;;4.18;2.67;;;;;;;9.38;76.53;101361.19;5031014;28;20033;-34
2022/05/31 02:12:51;;;;;;;4.63;3.10;;;;;;;9.32;76.78;101364.72;5031425;28;20394;-35
2022/05/31 02:15:18;;;;;;;5.53;2.60;;;;;;;9.31;77.55;101362.22;5031024;28;20033;-34
2022/05/31 02:17:43;;;;;;;4.22;2.80;;;;;;;9.31;79.50;101362.22;5031170;28;20452;-35
2022/05/31 02:20:09;;;;;;;4.83;3.13;;;;;;;9.25;77.76;101351.22;5030805;28;20034;-35
2022/05/31 02:22:35;;;;;;;4.32;2.70;;;;;;;9.34;78.46;101362.63;5031268;28;20068;-34
2022/05/31 02:25:00;;;;;;;4.60;3.47;;;;;;;9.31;78.59;101360.34;5076938;28;20449;-34
2022/05/31 02:27:25;;;;;;;5.80;3.20;;;;;;;9.31;78.91;101357.66;5093510;28;20031;-35
2022/05/31 02:29:52;;;;;;;6.20;3.10;;;;;;;9.24;80.34;101349.56;5093118;28;20277;-35
2022/05/31 02:32:17;;;;;;;3.78;3.03;;;;;;;9.23;79.52;101358.72;5093670;28;20054;-35
2022/05/31 02:34:46;;;;;;;3.30;2.47;;;;;;;9.26;80.90;101358.28;5094446;28;20052;-35
2022/05/31 02:37:12;;;;;;;4.07;2.88;;;;;;;9.28;80.59;101342.72;5099550;28;20024;-35
2022/05/31 02:39:37;;;;;;;4.35;3.47;;;;;;;9.24;80.77;101336.06;5099984;28;20031;-35
2022/05/31 02:42:04;;;;;;;4.38;3.15;;;;;;;9.36;80.98;101355.13;5100248;28;20031;-35
2022/05/31 02:44:29;;;;;;;4.15;3.17;;;;;;;9.39;81.08;101349.34;5100413;28;20032;-35
2022/05/31 02:46:55;;;;;;;6.47;3.73;;;;;;;9.40;80.79;101347.47;5100472;28;20066;-35
2022/05/31 02:49:21;;;;;;;5.72;3.28;;;;;;;9.27;79.74;101324.88;5099334;28;20599;-35
2022/05/31 02:51:47;;;;;;;3.83;3.00;;;;;;;9.31;78.97;101340.63;5099660;28;20058;-35
2022/05/31 02:54:14;;;;;;;4.72;3.13;;;;;;;9.44;79.80;101354.09;5100072;28;20516;-35
2022/05/31 02:56:39;;;;;;;4.90;3.05;;;;;;;9.39;79.81;101343.13;5099830;28;20483;-35
2022/05/31 02:59:05;;;;;;;3.67;2.70;;;;;;;9.41;79.94;101344.53;5099987;28;20039;-35
2022/05/31 03:01:36;;;;;;;5.55;3.03;;;;;;;9.32;80.22;101328.78;5100386;28;20020;-35
2022/05/31 03:04:01;;;;;;;5.38;3.00;;;;;;;9.45;80.80;101347.66;5099851;28;20031;-35
2022/05/31 03:06:27;;;;;;;4.20;3.20;;;;;;;9.49;80.08;101351.59;5099574;28;20065;-35
2022/05/31 03:08:52;;;;;;;5.55;3.10;;;;;;;9.46;79.15;101349.31;5099499;28;20111;-35
2022/05/31 03:11:39;;;;;;;4.73;3.03;;;;;;;9.32;78.14;101332.34;5099591;28;20115;-35
2022/05/31 03:14:20;;;;;;;3.80;2.72;;;;;;;9.45;78.61;101339.56;5099900;28;20039;-35
2022/05/31 03:16:50;;;;;;;4.07;2.70;;;;;;;9.43;79.32;101339.78;5099970;28;20353;-35
2022/05/31 03:19:21;;;;;;;4.55;3.15;;;;;;;9.43;78.85;101339.78;5100283;28;20372;-35
2022/05/31 03:21:53;;;;;;;4.07;3.10;;;;;;;9.41;80.35;101333.75;5100178;28;20039;-35
2022/05/31 03:24:22;;;;;;;5.85;3.20;;;;;;;9.41;80.17;101320.25;5099141;28;20028;-35
2022/05/31 03:26:50;;;;;;;4.05;3.10;;;;;;;9.46;80.01;101336.63;5099625;28;20024;-35
2022/05/31 03:29:16;;;;;;;5.20;3.15;;;;;;;9.53;81.13;101332.06;5099320;28;20111;-35
2022/05/31 03:31:41;;;;;;;4.78;3.25;;;;;;;9.51;80.45;101336.84;5099614;28;20377;-35
2022/05/31 03:34:07;;;;;;;4.80;3.55;;;;;;;9.48;80.67;101331.88;5098956;28;20377;-35
2022/05/31 03:36:33;;;;;;;6.60;3.77;;;;;;;9.46;79.64;101333.13;5099056;28;20031;-35
2022/05/31 03:38:59;;;;;;;6.13;3.70;;;;;;;9.46;79.93;101333.94;5099246;28;20039;-35
2022/05/31 03:41:24;;;;;;;4.97;3.55;;;;;;;9.48;80.02;101337.28;5099837;28;20036;-35
2022/05/31 03:43:49;;;;;;;6.70;3.80;;;;;;;9.46;80.36;101333.13;5099228;28;20406;-35
2022/05/31 03:46:16;;;;;;;6.17;3.90;;;;;;;9.48;80.53;101336.44;5098587;28;20047;-35
2022/05/31 03:48:41;;;;;;;4.40;3.75;;;;;;;9.41;78.59;101336.44;5095769;28;20034;-35
2022/05/31 03:51:09;;;;;;;6.60;3.42;;;;;;;9.46;80.31;101343.91;5096291;28;20516;-35
2022/05/31 03:53:35;;;;;;;6.72;3.63;;;;;;;9.37;80.50;101329.84;5096508;28;20068;-35
2022/05/31 03:56:06;;;;;;;7.35;4.32;;;;;;;9.42;80.88;101329.16;5095992;28;20059;-35
2022/05/31 03:58:32;;;;;;;6.63;3.65;;;;;;;9.35;81.14;101331.06;5095754;28;20456;-35
2022/05/31 04:00:58;;;;;;;5.70;3.70;;;;;;;9.48;81.03;101334.56;5096256;28;20031;-35
2022/05/31 04:03:24;;;;;;;6.25;4.55;;;;;;;9.51;80.91;101336.00;5095363;28;20108;-35
2022/05/31 04:05:50;;;;;;;;;;;;;;;9.72;79.05;101343.03;5096644;28;20028;-35
2022/05/31 04:08:15;;;;;;;5.60;3.65;;;;;;;9.66;79.69;101341.16;5095515;28;20382;-35
2022/05/31 04:10:43;;;;;;;4.95;3.97;;;;;;;9.61;80.85;101324.75;5096075;28;20035;-35
2022/05/31 04:13:09;;;;;;;5.65;3.35;;;;;;;9.74;81.01;101338.22;5095622;28;20204;-35
2022/05/31 04:15:34;;;;;;;;;;;;;;;9.87;79.39;101335.47;5096195;28;20032;-35
2022/05/31 04:18:01;;;;;;;6.55;3.67;;;;;;;9.65;80.83;101317.91;5096236;28;19915;-35
2022/05/31 04:20:26;;;;;;;7.00;4.75;;;;;;;9.74;80.41;101335.53;5095708;28;20036;-35
2022/05/31 04:23:57;;;;;;;7.03;4.82;;;;;;;9.72;80.97;101326.81;5095349;28;20028;-35
2022/05/31 04:25:37;;;;;;;6.32;4.03;;;;;;;9.64;81.67;101340.53;5095804;28;20039;-35
2022/05/31 04:28:02;;;;;;;7.27;4.17;;;;;;;9.57;81.52;101318.16;5095347;28;20464;-35
2022/05/31 04:30:28;;;;;;;12.13;5.18;;;;;;;9.65;81.95;101331.41;5094931;28;20032;-35
2022/05/31 04:32:53;;;;;;;5.87;4.57;;;;;;;9.71;82.60;101330.53;5095795;28;20105;-35
2022/05/31 04:35:18;;;;;;;7.60;4.80;;;;;;;9.77;82.55;101332.41;5095397;28;20081;-36
2022/05/31 04:37:44;;;;;;;7.13;5.03;;;;;;;9.72;82.46;101324.13;5095923;28;20032;-35
2022/05/31 04:40:10;;;;;;;11.10;5.40;;;;;;;9.74;82.41;101336.34;5093950;28;20522;-35
2022/05/31 04:42:37;;;;;;;9.10;5.32;;;;;;;9.77;83.15;101333.22;5094907;28;20035;-35
2022/05/31 04:45:03;;;;;;;8.63;4.80;;;;;;;9.71;82.68;101336.81;5094877;28;20039;-35
2022/05/31 04:47:29;;;;;;;8.23;4.90;;;;;;;9.71;83.17;101315.19;5095098;28;20032;-35
2022/05/31 04:49:54;;;;;;;8.43;5.07;;;;;;;9.83;83.09;101334.25;5094609;28;20452;-35
2022/05/31 04:52:19;;;;;;;12.33;5.90;;;;;;;9.88;83.13;101330.91;5095283;28;20020;-35
2022/05/31 04:54:45;;;;;;;8.73;5.10;;;;;;;9.95;82.89;101327.13;5094791;28;20476;-35
2022/05/31 04:57:10;;;;;;;8.70;5.33;;;;;;;10.02;83.22;101325.22;5094553;28;20500;-35
2022/05/31 04:59:35;;;;;;;6.87;5.23;;;;;;;10.07;82.16;101325.41;5093739;28;20032;-35
2022/05/31 05:02:01;;;;;;;8.60;5.50;;;;;;;10.06;82.31;101323.75;5094942;28;20031;-35
2022/05/31 05:04:26;;;;;;;11.90;5.67;;;;;;;9.99;81.99;101308.59;5093389;28;20081;-35
2022/05/31 05:06:51;;;;;;;9.53;6.10;;;;;;;10.06;81.72;101320.22;5094770;28;20028;-35
2022/05/31 05:09:17;;;;;;;7.33;6.00;;;;;;;10.11;81.65;101325.00;5094776;28;20024;-35
2022/05/31 05:11:44;;;;;;;;;;;;;;;10.20;80.93;101327.22;5095173;28;20028;-35
2022/05/31 05:14:09;;;;;;;9.88;6.00;;;;;;;10.12;81.83;101310.44;5094542;28;19980;-35
2022/05/31 05:16:35;;;;;;;9.27;6.53;;;;;;;10.18;81.47;101315.78;5094176;28;20107;-35
2022/05/31 05:19:01;;;;;;;7.72;5.45;;;;;;;10.28;81.75;101328.84;5094575;28;20111;-35
2022/05/31 05:21:26;;;;;;;9.00;5.93;;;;;;;10.32;81.24;101324.69;5094212;28;20117;-35
2022/05/31 05:23:51;;;;;;;7.37;6.00;;;;;;;10.35;80.92;101316.13;5094190;28;20032;-35
2022/05/31 05:26:17;;;;;;;8.30;5.73;;;;;;;10.37;80.76;101314.03;5093697;28;20032;-35
2022/05/31 05:31:30;;;;;;;9.38;5.90;;;;;;;10.45;81.25;101321.91;5094364;28;20038;-35
2022/05/31 05:33:56;;;;;;;10.25;5.90;;;;;;;10.31;81.22;101296.00;5094352;28;20134;-35
2022/05/31 05:36:22;;;;;;;6.65;5.93;;;;;;;10.40;81.07;101301.97;5093945;28;20036;-35
2022/05/31 05:38:48;;;;;;;9.38;5.32;;;;;;;10.48;81.12;101310.63;5094127;28;20025;-35
2022/05/31 05:41:14;;;;;;;15.43;5.78;;;;;;;10.57;80.82;101317.41;5094652;28;20035;-35
2022/05/31 05:43:40;;;;;;;7.88;5.55;;;;;;;10.66;81.42;101318.00;5093439;28;20028;-35
2022/05/31 05:46:21;;;;;;;11.05;5.93;;;;;;;10.76;80.36;101312.09;5094031;28;20040;-35
2022/05/31 05:48:46;;;;;;;6.65;5.47;;;;;;;10.82;80.25;101317.44;5093918;28;20043;-35
2022/05/31 05:51:13;;;;;;;5.68;5.07;;;;;;;10.90;80.52;101326.34;5093329;28;20468;-35
2022/05/31 05:53:39;;;;;;;8.20;5.88;;;;;;;10.86;80.17;101323.25;5093708;28;20427;-35
2022/05/31 05:56:04;;;;;;;10.02;6.32;;;;;;;10.82;80.39;101322.00;5093622;28;20043;-35
2022/05/31 05:58:29;;;;;;;7.47;6.30;;;;;;;10.85;81.12;101313.47;5093480;28;20036;-35
2022/05/31 06:00:55;;;;;;;8.77;6.30;;;;;;;10.87;80.42;101318.66;5093828;28;20535;-35
2022/05/31 06:03:30;;;;;;;8.37;6.00;;;;;;;10.93;80.42;101317.75;5093359;28;20278;-35
2022/05/31 06:05:57;;;;;;;7.90;5.82;;;;;;;10.92;79.93;101316.09;5093749;28;20266;-35
2022/05/31 06:08:32;;;;;;;8.18;6.50;;;;;;;10.87;79.70;101318.66;5093789;28;20032;-35
2022/05/31 06:11:01;;;;;;;12.50;7.93;;;;;;;10.88;80.27;101318.41;5092906;28;20032;-35
2022/05/31 06:13:33;;;;;;;6.95;5.80;;;;;;;10.88;80.47;101313.00;5092819;28;20341;-35
2022/05/31 06:15:58;;;;;;;11.88;7.35;;;;;;;10.79;79.71;101317.06;5093715;28;20041;-35
2022/05/31 06:18:31;;;;;;;9.48;7.00;;;;;;;10.76;79.15;101312.91;5093678;28;20027;-35
2022/05/31 06:21:00;;;;;;;8.98;7.07;;;;;;;10.78;80.32;101309.97;5093961;28;20032;-35
2022/05/31 06:23:26;;;;;;;7.53;6.40;;;;;;;10.75;81.03;101305.03;5093880;28;20023;-35
2022/05/31 06:25:51;;;;;;;8.75;6.70;;;;;;;10.82;79.11;101311.19;5093440;28;20040;-35
2022/05/31 06:28:16;;;;;;;8.10;6.30;;;;;;;10.82;79.58;101300.38;5093168;28;20035;-35
2022/05/31 06:30:42;;;;;;;8.53;6.60;;;;;;;10.87;79.90;101310.53;5092915;28;20035;-35
2022/05/31 06:33:07;;;;;;;9.87;6.97;;;;;;;10.83;79.37;101313.69;5092591;28;20155;-35
2022/05/31 06:35:33;;;;;;;11.17;6.67;;;;;;;10.99;78.95;101306.91;5093036;28;20043;-35
2022/05/31 06:37:59;;;;;;;8.38;7.18;;;;;;;11.06;77.78;101309.53;5092740;28;20028;-35
2022/05/31 06:40:24;;;;;;;9.45;6.53;;;;;;;11.21;78.22;101306.47;5093542;28;20039;-35
2022/05/31 06:42:49;;;;;;;8.23;7.20;;;;;;;11.11;77.26;101300.75;5093019;28;20036;-35
2022/05/31 06:45:15;;;;;;;7.90;6.33;;;;;;;11.25;78.38;101308.50;5092926;28;20109;-35
2022/05/31 06:47:40;;;;;;;8.70;7.40;;;;;;;11.42;77.15;101311.47;5093388;28;20028;-35
2022/05/31 06:50:06;;;;;;;10.07;7.03;;;;;;;11.46;77.96;101318.06;5092882;28;20801;-35
2022/05/31 06:58:00;;;;;;;9.63;7.18;;;;;;;11.76;76.59;101312.72;5093145;28;20035;-35
2022/05/31 07:00:25;;;;;;;11.30;7.13;;;;;;;11.84;75.78;101319.75;5092861;28;20383;-35
2022/05/31 07:02:53;;;;;;;6.47;5.85;;;;;;;11.94;75.74;101319.19;5093362;28;20448;-35
2022/05/31 07:05:19;;;;;;;8.32;6.05;;;;;;;12.00;75.08;101305.53;5092729;28;20039;-35
2022/05/31 07:07:45;;;;;;;8.38;6.20;;;;;;;12.10;74.00;101305.00;5093120;28;20141;-35
2022/05/31 07:10:10;;;;;;;10.52;5.80;;;;;;;12.34;72.99;101308.63;5092422;28;20028;-35
2022/05/31 07:12:37;;;;;;;6.65;4.95;;;;;;;12.43;71.83;101296.38;5093223;28;20028;-35
2022/05/31 07:15:04;;;;;;;6.57;5.13;;;;;;;12.72;71.80;101315.56;5092881;28;20047;-35
2022/05/31 07:17:29;;;;;;;5.07;4.38;;;;;;;12.87;69.87;101302.34;5092927;28;20028;-35
2022/05/31 07:19:55;;;;;;;6.45;4.70;;;;;;;13.07;68.95;101310.16;5092669;28;20028;-35
2022/05/31 07:22:20;;;;;;;7.07;4.82;;;;;;;13.18;69.68;101309.34;5093680;28;20029;-35
2022/05/31 07:24:46;;;;;;;5.80;4.40;;;;;;;13.27;69.20;101307.94;5095274;28;20472;-35
2022/05/31 07:27:11;;;;;;;5.43;4.43;;;;;;;13.36;69.47;101295.63;5097109;28;20095;-35
2022/05/31 07:29:37;;;;;;;4.82;4.20;;;;;;;13.46;68.09;101305.91;5096043;28;20765;-35
2022/05/31 07:32:03;;;;;;;6.88;4.15;;;;;;;13.51;67.67;101294.31;5096646;28;20112;-35
2022/05/31 07:34:28;;;;;;;6.63;4.30;;;;;;;13.64;69.08;101305.75;5096536;28;20059;-36
2022/05/31 07:36:54;;;;;;;5.03;3.97;;;;;;;13.67;68.36;101307.19;5096034;28;20032;-35
2022/05/31 07:39:21;;;;;;;5.45;4.22;;;;;;;13.67;68.33;101290.88;5096636;28;20353;-36
2022/05/31 07:41:47;;;;;;;6.40;3.60;;;;;;;13.79;67.44;101301.69;5096468;28;20369;-36
2022/05/31 07:44:14;;;;;;;4.85;3.90;;;;;;;13.75;65.29;101298.63;5096181;28;20028;-35
2022/05/31 07:46:39;;;;;;;5.68;3.92;;;;;;;13.93;67.40;101294.09;5094338;28;20032;-35
2022/05/31 07:49:05;;;;;;;4.43;3.47;;;;;;;14.08;63.96;101297.09;5096102;28;20043;-35
2022/05/31 07:51:30;;;;;;;3.22;2.85;;;;;;;14.22;64.93;101297.63;5095841;28;20032;-35
2022/05/31 07:53:56;;;;;;;6.00;3.50;;;;;;;14.24;63.44;101281.88;5095653;28;20031;-35
2022/05/31 07:56:22;;;;;;;3.63;2.80;;;;;;;14.34;62.28;101296.47;5096768;28;20421;-36
2022/05/31 07:58:48;;;;;;;5.18;3.17;;;;;;;14.38;63.00;101285.94;5096223;28;20357;-35
2022/05/31 08:01:19;;;;;;;4.45;2.83;;;;;;;14.47;62.98;101286.38;5096344;28;20103;-35
2022/05/31 08:03:45;;;;;;;4.65;3.20;;;;;;;14.54;60.54;101289.78;5096040;28;20054;-35
2022/05/31 08:06:16;;;;;;;9.38;3.50;;;;;;;14.49;61.61;101263.31;5095697;28;20028;-35
2022/05/31 08:08:42;;;;;;;5.82;3.97;;;;;;;14.55;61.35;101253.34;5096416;28;20031;-35
2022/05/31 08:11:08;;;;;;;;;;;;;;;14.91;59.81;101284.66;5096093;28;20135;-35
2022/05/31 08:13:34;;;;;;;4.47;3.35;;;;;;;14.80;59.03;101277.44;5094063;28;19923;-35
2022/05/31 08:16:01;;;;;;;3.95;3.28;;;;;;;15.06;61.19;101275.91;5096117;28;20028;-35
2022/05/31 08:18:27;;;;;;;5.07;3.33;;;;;;;15.12;58.13;101281.16;5095544;28;20360;-35
2022/05/31 08:21:06;;;;;;;6.22;3.50;;;;;;;15.37;58.53;101271.69;5096258;28;20031;-35
2022/05/31 08:23:33;;;;;;;3.97;2.70;;;;;;;15.31;58.22;101250.91;5095374;28;20093;-36
2022/05/31 08:25:59;;;;;;;4.25;2.88;;;;;;;15.38;56.37;101260.56;5095348;28;20457;-35
2022/05/31 08:28:24;;;;;;;;;;;;;;;15.55;58.38;101257.75;5095696;28;20032;-35
2022/05/31 08:30:55;;;;;;;3.92;2.80;;;;;;;15.59;57.25;101252.63;5095185;28;20000;-35
2022/05/31 08:33:20;;;;;;;5.03;2.72;;;;;;;15.63;55.72;101257.34;5094871;28;20150;-35
2022/05/31 08:35:46;;;;;;;;;;;;;;;15.82;58.07;101262.47;5095886;28;20094;-36
2022/05/31 08:38:11;;;;;;;4.18;2.33;;;;;;;16.03;57.39;101256.16;5095643;28;19925;-36
2022/05/31 08:41:07;;;;;;;3.65;2.50;;;;;;;16.20;57.76;101258.75;5095646;28;20032;-36
2022/05/31 08:43:49;;;;;;;4.25;2.90;;;;;;;16.20;56.67;101248.69;5072808;28;20040;-35
2022/05/31 08:46:32;;;;;;;4.60;2.40;;;;;;;16.38;54.63;101255.66;5072691;28;20036;-35
2022/05/31 08:49:09;;;;;;;5.47;2.78;;;;;;;16.08;54.22;101256.19;5072948;28;20033;-35
2022/05/31 08:51:52;;;;;;;5.40;2.65;;;;;;;16.13;55.66;101264.44;5073002;28;20099;-35
2022/05/31 08:57:14;;;;;;;5.22;2.60;;;;;;;16.04;55.97;101274.16;5072462;28;20055;-35
2022/05/31 09:00:07;;;;;;;6.63;2.45;;;;;;;16.36;56.76;101268.75;5072119;28;20512;-36
2022/05/31 09:03:08;;;;;;;2.97;2.63;;;;;;;16.51;55.01;101265.34;5069205;28;20036;-35
2022/05/31 09:05:43;;;;;;;2.88;2.50;;;;;;;16.60;54.89;101257.50;5072301;28;20373;-35
2022/05/31 09:08:17;;;;;;;8.63;2.63;;;;;;;16.76;56.08;101263.91;5072568;28;20470;-36
2022/05/31 09:10:49;;;;;;;5.55;2.58;;;;;;;16.76;52.00;101251.09;5072438;28;20401;-35
2022/05/31 09:13:30;;;;;;;3.35;2.08;;;;;;;17.06;53.68;101261.38;5072421;28;20406;-35
2022/05/31 09:16:01;;;;;;;3.20;1.98;;;;;;;16.78;52.02;101256.28;5072010;28;20162;-36
2022/05/31 09:18:43;;;;;;;3.65;2.20;;;;;;;16.96;52.43;101253.94;5072025;28;20024;-35
2022/05/31 09:21:22;;;;;;;3.45;2.38;;;;;;;16.84;52.81;101258.78;5091456;28;20438;-36
2022/05/31 09:23:48;;;;;;;2.95;2.10;;;;;;;17.02;53.63;101253.97;5094829;28;20063;-36
2022/05/31 09:26:32;;;;;;;;;;;;;;;17.32;54.08;101258.78;5095490;28;20070;-35
2022/05/31 09:29:17;;;;;;;3.45;2.30;;;;;;;17.43;54.29;101258.59;5094313;28;19921;-36
2022/05/31 09:31:42;;;;;;;5.85;2.55;;;;;;;17.39;50.58;101260.19;5094862;28;20423;-35
2022/05/31 09:34:27;;;;;;;;;;;;;;;17.67;52.59;101261.69;5094957;28;20048;-36
2022/05/31 09:37:24;;;;;;;3.80;2.20;;;;;;;17.87;50.31;101260.13;5092471;28;19919;-36
2022/05/31 09:40:19;;;;;;;3.45;2.47;;;;;;;17.89;50.28;101249.75;5094103;28;20115;-36
2022/05/31 09:42:59;;;;;;;3.85;2.28;;;;;;;18.05;49.76;101247.84;5089392;28;20044;-36
2022/05/31 09:45:29;;;;;;;4.13;2.13;;;;;;;18.07;48.02;101251.97;5093191;28;20024;-36
2022/05/31 09:47:57;;;;;;;3.13;2.38;;;;;;;18.02;46.96;101250.03;5094131;28;20042;-36
2022/05/31 09:50:25;;;;;;;3.97;2.50;;;;;;;18.02;49.42;101246.50;5093468;28;20062;-36
2022/05/31 09:52:56;;;;;;;4.18;2.65;;;;;;;18.33;48.81;101250.06;5094344;28;20035;-35
2022/05/31 09:58:36;;;;;;;4.35;2.85;;;;;;;18.14;49.97;101244.31;5094142;28;20166;-35
2022/05/31 10:01:04;;;;;;;5.55;3.20;;;;;;;18.27;49.83;101243.78;5093843;28;20105;-36
2022/05/31 10:03:46;;;;;;;5.78;2.95;;;;;;;18.47;48.39;101239.41;5093529;28;20035;-36
2022/05/31 10:06:18;;;;;;;3.72;2.95;;;;;;;18.16;49.84;101250.34;5093477;28;20058;-36
2022/05/31 10:08:47;;;;;;;5.32;3.55;;;;;;;17.78;50.64;101250.81;5093492;28;20120;-36
2022/05/31 10:11:43;;;;;;;9.60;4.15;;;;;;;17.23;51.78;101245.63;5093544;28;20045;-35
2022/05/31 10:14:25;;;;;;;5.05;3.22;;;;;;;17.12;53.08;101243.09;5093582;28;20036;-35
2022/05/31 10:16:52;;;;;;;5.72;3.08;;;;;;;17.25;54.26;101242.63;5093295;28;20028;-35
2022/05/31 10:19:35;;;;;;;3.97;3.35;;;;;;;17.70;55.57;101243.91;5094104;28;20039;-35
2022/05/31 10:22:16;;;;;;;4.93;3.38;;;;;;;18.14;53.86;101227.06;5093847;28;20020;-36
2022/05/31 10:24:41;;;;;;;4.57;3.40;;;;;;;18.33;50.04;101235.56;5093165;28;20102;-35
2022/05/31 10:27:10;;;;;;;;;;;;;;;18.77;51.79;101236.66;5094172;28;20032;-36
2022/05/31 10:29:53;;;;;;;3.45;3.13;;;;;;;18.94;49.40;101236.38;5093227;28;19908;-36
2022/05/31 10:32:29;;;;;;;3.75;3.20;;;;;;;19.19;47.70;101232.75;5093873;28;20365;-36
2022/05/31 10:35:26;;;;;;;3.92;3.10;;;;;;;19.45;47.54;101229.91;5093957;28;20154;-36
2022/05/31 10:38:21;;;;;;;4.28;2.90;;;;;;;19.41;44.72;101239.78;5065507;28;20041;-36
2022/05/31 10:40:52;;;;;;;4.22;2.33;;;;;;;19.39;45.54;101225.53;5040017;28;20049;-36
2022/05/31 10:43:39;;;;;;;4.30;3.28;;;;;;;19.30;46.01;101228.84;5050765;28;20044;-36
2022/05/31 10:46:24;;;;;;;5.95;3.63;;;;;;;18.91;46.55;101227.88;5050555;28;20570;-36
2022/05/31 10:48:53;;;;;;;7.43;3.50;;;;;;;18.37;45.27;101231.19;5050623;28;20037;-36
2022/05/31 10:51:39;;;;;;;5.43;3.70;;;;;;;18.31;46.79;101235.03;5050664;28;20103;-36
2022/05/31 10:54:19;;;;;;;5.05;3.35;;;;;;;18.17;46.02;101226.53;5050536;28;20032;-36
2022/05/31 10:56:47;;;;;;;4.85;3.60;;;;;;;18.05;46.67;101226.78;5052526;28;20090;-36
2022/05/31 10:59:23;;;;;;;6.35;3.42;;;;;;;17.90;48.00;101210.34;5037651;28;20362;-35
2022/05/31 11:02:25;;;;;;;5.70;3.60;;;;;;;17.98;47.66;101224.31;5054850;28;20037;-36
2022/05/31 11:04:56;;;;;;;4.40;3.13;;;;;;;17.87;49.22;101217.19;5054883;28;20033;-35
2022/05/31 11:13:49;;;;;;;5.80;3.60;;;;;;;17.73;49.07;101227.00;5054862;28;20162;-35
2022/05/31 11:16:46;;;;;;;4.30;3.50;;;;;;;17.69;47.97;101229.41;5056907;28;20075;-36
2022/05/31 11:19:29;;;;;;;7.57;3.95;;;;;;;17.61;49.20;101218.97;5056680;28;20378;-36
2022/05/31 11:22:04;;;;;;;4.50;3.60;;;;;;;17.65;49.47;101236.50;5056040;28;20545;-35
2022/05/31 11:24:39;;;;;;;8.30;3.78;;;;;;;17.62;49.65;101239.78;5056184;28;20064;-35
2022/05/31 11:27:43;;;;;;;3.92;3.45;;;;;;;17.54;49.29;101225.81;5056757;28;20055;-36
2022/05/31 11:30:27;;;;;;;4.20;3.22;;;;;;;17.55;49.14;101241.13;5054150;28;20112;-35
2022/05/31 11:32:58;;;;;;;6.25;3.67;;;;;;;17.50;50.37;101233.72;5053748;28;20037;-36
2022/05/31 11:35:34;;;;;;;4.43;3.30;;;;;;;17.47;51.69;101231.50;5053801;28;20036;-35
2022/05/31 11:38:08;;;;;;;6.72;3.60;;;;;;;17.38;49.39;101227.69;5054164;28;20029;-35
2022/05/31 11:40:53;;;;;;;4.60;3.78;;;;;;;17.41;49.49;101236.13;5054041;28;20048;-36
2022/05/31 11:43:21;;;;;;;4.90;4.05;;;;;;;17.20;48.68;101201.63;5053836;28;20072;-35
2022/05/31 11:45:55;;;;;;;5.40;4.05;;;;;;;17.27;48.44;101229.50;5053392;28;20120;-35
2022/05/31 11:48:29;;;;;;;8.48;3.80;;;;;;;17.28;51.03;101227.63;5054079;28;20033;-36
2022/05/31 11:51:06;;;;;;;5.30;4.13;;;;;;;17.38;50.89;101235.88;5053647;28;20557;-36
2022/05/31 11:53:52;;;;;;;5.03;3.58;;;;;;;17.38;51.58;101241.34;5053553;28;20065;-36
2022/05/31 11:56:28;;;;;;;5.07;3.42;;;;;;;17.19;47.44;101222.66;5053943;28;20111;-36
2022/05/31 11:59:03;;;;;;;4.38;3.53;;;;;;;17.42;51.62;101242.44;5053317;28;20525;-35
2022/05/31 12:01:47;;;;;;;5.38;4.22;;;;;;;17.36;49.21;101238.03;5053263;28;20104;-36
2022/05/31 12:04:43;;;;;;;5.38;3.47;;;;;;;17.61;50.33;101232.66;5053275;28;20102;-36
2022/05/31 12:07:21;;;;;;;4.75;3.20;;;;;;;17.57;49.82;101239.78;5056169;28;20025;-36
2022/05/31 12:09:58;;;;;;;5.72;3.50;;;;;;;17.57;50.50;101241.66;5055867;28;20036;-36